Adventuress — WCX8691 — position and weather

sailwx.info

Track history (hours):
 
Tides and Currents Weather Stations Pressure Air Temp Water Temp Dewpoint Dewpoint Depression Visibility Wind Speed Wind Dir Waves Ship Positions

Adventuress (United States)

Ship's website: http://www.soundexp.org/

Owner: SOUND EXPERIENCE, PORT TOWNSEND, WA. More information available from US FCC via Universal Licensing System and Coast Guard Vessel Documentation Center.

Last reported at 2015-Jul-28 22:09 UTC. Time now 2015-Aug-03 00:27 UTC.
Position N 48°35' W 123°02'.

Type: Passenger vessel. MMSI: 367323180.

Date/timePositionNaut miles runAvg speedWind from/ knotsBaromVisibWave heightAir tempDewpointWater temp
2015-Jul-28 22:09N 48°35' W 123°02'2 0.1
2015-Jul-27 18:27N 48°36' W 123°04'5 0.3
2015-Jul-27 00:20N 48°35' W 122°56'11 5.5
2015-Jul-26 22:18N 48°31' W 122°40'3 3.8
2015-Jul-26 21:33N 48°31' W 122°36'0 0.3
2015-Jul-26 20:24N 48°31' W 122°36'0 0.0
2015-Jul-26 19:30N 48°31' W 122°36'0 0.0
2015-Jul-26 18:30N 48°31' W 122°36'0 0.0
2015-Jul-26 17:30N 48°31' W 122°36'0 0.0
2015-Jul-26 16:30N 48°31' W 122°36'0 0.0
2015-Jul-26 15:30N 48°31' W 122°36'0 0.0
2015-Jul-26 14:30N 48°31' W 122°36'0 0.0
2015-Jul-26 13:24N 48°31' W 122°36'0 0.0
2015-Jul-26 12:24N 48°31' W 122°36'0 0.0
2015-Jul-26 11:30N 48°31' W 122°36'0 0.0
2015-Jul-26 10:30N 48°31' W 122°36'0 0.0
2015-Jul-26 09:30N 48°31' W 122°36'0 0.0
2015-Jul-26 08:18N 48°31' W 122°36'0 0.0
2015-Jul-26 07:24N 48°31' W 122°36'0 0.0
2015-Jul-26 06:30N 48°31' W 122°36'0 0.0
2015-Jul-26 05:30N 48°31' W 122°36'0 0.0
2015-Jul-26 04:30N 48°31' W 122°36'0 0.0
2015-Jul-26 03:30N 48°31' W 122°36'0 0.0
2015-Jul-26 02:30N 48°31' W 122°36'0 0.0
2015-Jul-26 01:30N 48°31' W 122°36'1 1.2
2015-Jul-26 00:33N 48°31' W 122°35'0 0.5
2015-Jul-25 23:33N 48°32' W 122°35'1 0.7
2015-Jul-25 22:33N 48°31' W 122°36'1 0.5
2015-Jul-25 21:29N 48°31' W 122°36'0 0.0
2015-Jul-25 20:17N 48°31' W 122°36'0 0.0
2015-Jul-25 19:29N 48°31' W 122°36'0 0.0
2015-Jul-25 18:29N 48°31' W 122°36'0 0.0
2015-Jul-25 17:29N 48°31' W 122°36'0 0.0
2015-Jul-25 16:29N 48°31' W 122°36'0 0.0
2015-Jul-25 15:33N 48°31' W 122°36'0 0.0
2015-Jul-25 14:33N 48°31' W 122°36'0 0.0
2015-Jul-25 13:33N 48°31' W 122°36'0 0.0
2015-Jul-25 12:33N 48°31' W 122°36'0 0.0
2015-Jul-25 11:33N 48°31' W 122°36'0 0.0
2015-Jul-25 10:33N 48°31' W 122°36'0 0.0
2015-Jul-25 09:33N 48°31' W 122°36'0 0.0
2015-Jul-25 08:33N 48°31' W 122°36'0 0.0
2015-Jul-25 07:33N 48°31' W 122°36'0 0.0
2015-Jul-25 06:33N 48°31' W 122°36'0 0.0
2015-Jul-25 05:33N 48°31' W 122°36'0 0.0
2015-Jul-25 04:33N 48°31' W 122°36'0 0.0
2015-Jul-25 03:33N 48°31' W 122°36'0 0.0
2015-Jul-25 02:33N 48°31' W 122°36'0 0.0
2015-Jul-25 01:33N 48°31' W 122°36'0 0.0
2015-Jul-25 00:33N 48°31' W 122°36'0 0.0
2015-Jul-24 23:33N 48°31' W 122°36'0 0.0
2015-Jul-24 22:33N 48°31' W 122°36'0 0.0
2015-Jul-24 21:33N 48°31' W 122°36'0 0.0
2015-Jul-24 20:33N 48°31' W 122°36'0 0.0
2015-Jul-24 19:33N 48°31' W 122°36'1 0.5
2015-Jul-24 18:33N 48°31' W 122°36'10 0.5
2015-Jul-23 22:33N 48°33' W 122°51'2 1.8
2015-Jul-23 21:33N 48°34' W 122°54'0 0.1
2015-Jul-23 20:34N 48°34' W 122°54'2 0.1
2015-Jul-22 22:21N 48°35' W 122°55'2 2.6
2015-Jul-22 21:33N 48°33' W 122°55'3 3.1
2015-Jul-22 20:31N 48°33' W 123°00'  
2015-Jul-20 01:17N 48°34' W 122°36'2 1.9
2015-Jul-20 00:11N 48°33' W 122°34'1 2.0
2015-Jul-19 23:33N 48°32' W 122°34'2 1.7
2015-Jul-19 22:31N 48°31' W 122°36'0 0.0
2015-Jul-19 21:31N 48°31' W 122°36'0 0.0
2015-Jul-19 20:31N 48°31' W 122°36'0 0.0
2015-Jul-19 19:31N 48°31' W 122°36'0 0.0
2015-Jul-19 18:31N 48°31' W 122°36'0 0.0
2015-Jul-19 17:25N 48°31' W 122°36'0 0.0
2015-Jul-19 16:31N 48°31' W 122°36'0 0.0
2015-Jul-19 15:31N 48°31' W 122°36'0 0.0
2015-Jul-19 14:34N 48°31' W 122°36'0 0.0
2015-Jul-19 13:34N 48°31' W 122°36'0 0.0
2015-Jul-19 12:34N 48°31' W 122°36'0 0.0
2015-Jul-19 11:34N 48°31' W 122°36'0 0.0
2015-Jul-19 10:33N 48°31' W 122°36'0 0.0
2015-Jul-19 09:34N 48°31' W 122°36'0 0.0
2015-Jul-19 08:33N 48°31' W 122°36'0 0.0
2015-Jul-19 07:33N 48°31' W 122°36'0 0.0
2015-Jul-19 06:33N 48°31' W 122°36'0 0.0
2015-Jul-19 05:33N 48°31' W 122°36'0 0.0
2015-Jul-19 04:33N 48°31' W 122°36'1 0.2
2015-Jul-19 00:33N 48°31' W 122°35'1 1.0
2015-Jul-18 23:33N 48°32' W 122°34'2 1.5
2015-Jul-18 22:33N 48°31' W 122°36'  
Track history (hours):
 
Tides and Currents Weather Stations Pressure Air Temp Water Temp Dewpoint Dewpoint Depression Visibility Wind Speed Wind Dir Waves Ship Positions

Adventuress (United States)

Ship's website: http://www.soundexp.org/

Owner: SOUND EXPERIENCE, PORT TOWNSEND, WA. More information available from US FCC via Universal Licensing System and Coast Guard Vessel Documentation Center.

Last reported at 2015-Jul-28 22:09 UTC. Time now 2015-Aug-03 00:27 UTC.
Position N 48°35' W 123°02'.

Type: Passenger vessel. MMSI: 367323180.

Date/timePositionNaut miles runAvg speedWind from/ knotsBaromVisibWave heightAir tempDewpointWater temp
2015-Jul-28 22:09N 48°35' W 123°02'2 0.1
2015-Jul-27 18:27N 48°36' W 123°04'5 0.3
2015-Jul-27 00:20N 48°35' W 122°56'11 5.5
2015-Jul-26 22:18N 48°31' W 122°40'3 3.8
2015-Jul-26 21:33N 48°31' W 122°36'0 0.3
2015-Jul-26 20:24N 48°31' W 122°36'0 0.0
2015-Jul-26 19:30N 48°31' W 122°36'0 0.0
2015-Jul-26 18:30N 48°31' W 122°36'0 0.0
2015-Jul-26 17:30N 48°31' W 122°36'0 0.0
2015-Jul-26 16:30N 48°31' W 122°36'0 0.0
2015-Jul-26 15:30N 48°31' W 122°36'0 0.0
2015-Jul-26 14:30N 48°31' W 122°36'0 0.0
2015-Jul-26 13:24N 48°31' W 122°36'0 0.0
2015-Jul-26 12:24N 48°31' W 122°36'0 0.0
2015-Jul-26 11:30N 48°31' W 122°36'0 0.0
2015-Jul-26 10:30N 48°31' W 122°36'0 0.0
2015-Jul-26 09:30N 48°31' W 122°36'0 0.0
2015-Jul-26 08:18N 48°31' W 122°36'0 0.0
2015-Jul-26 07:24N 48°31' W 122°36'0 0.0
2015-Jul-26 06:30N 48°31' W 122°36'0 0.0
2015-Jul-26 05:30N 48°31' W 122°36'0 0.0
2015-Jul-26 04:30N 48°31' W 122°36'0 0.0
2015-Jul-26 03:30N 48°31' W 122°36'0 0.0
2015-Jul-26 02:30N 48°31' W 122°36'0 0.0
2015-Jul-26 01:30N 48°31' W 122°36'1 1.2
2015-Jul-26 00:33N 48°31' W 122°35'0 0.5
2015-Jul-25 23:33N 48°32' W 122°35'1 0.7
2015-Jul-25 22:33N 48°31' W 122°36'1 0.5
2015-Jul-25 21:29N 48°31' W 122°36'0 0.0
2015-Jul-25 20:17N 48°31' W 122°36'0 0.0
2015-Jul-25 19:29N 48°31' W 122°36'0 0.0
2015-Jul-25 18:29N 48°31' W 122°36'0 0.0
2015-Jul-25 17:29N 48°31' W 122°36'0 0.0
2015-Jul-25 16:29N 48°31' W 122°36'0 0.0
2015-Jul-25 15:33N 48°31' W 122°36'0 0.0
2015-Jul-25 14:33N 48°31' W 122°36'0 0.0
2015-Jul-25 13:33N 48°31' W 122°36'0 0.0
2015-Jul-25 12:33N 48°31' W 122°36'0 0.0
2015-Jul-25 11:33N 48°31' W 122°36'0 0.0
2015-Jul-25 10:33N 48°31' W 122°36'0 0.0
2015-Jul-25 09:33N 48°31' W 122°36'0 0.0
2015-Jul-25 08:33N 48°31' W 122°36'0 0.0
2015-Jul-25 07:33N 48°31' W 122°36'0 0.0
2015-Jul-25 06:33N 48°31' W 122°36'0 0.0
2015-Jul-25 05:33N 48°31' W 122°36'0 0.0
2015-Jul-25 04:33N 48°31' W 122°36'0 0.0
2015-Jul-25 03:33N 48°31' W 122°36'0 0.0
2015-Jul-25 02:33N 48°31' W 122°36'0 0.0
2015-Jul-25 01:33N 48°31' W 122°36'0 0.0
2015-Jul-25 00:33N 48°31' W 122°36'0 0.0
2015-Jul-24 23:33N 48°31' W 122°36'0 0.0
2015-Jul-24 22:33N 48°31' W 122°36'0 0.0
2015-Jul-24 21:33N 48°31' W 122°36'0 0.0
2015-Jul-24 20:33N 48°31' W 122°36'0 0.0
2015-Jul-24 19:33N 48°31' W 122°36'1 0.5
2015-Jul-24 18:33N 48°31' W 122°36'10 0.5
2015-Jul-23 22:33N 48°33' W 122°51'2 1.8
2015-Jul-23 21:33N 48°34' W 122°54'0 0.1
2015-Jul-23 20:34N 48°34' W 122°54'2 0.1
2015-Jul-22 22:21N 48°35' W 122°55'2 2.6
2015-Jul-22 21:33N 48°33' W 122°55'3 3.1
2015-Jul-22 20:31N 48°33' W 123°00'  
2015-Jul-20 01:17N 48°34' W 122°36'2 1.9
2015-Jul-20 00:11N 48°33' W 122°34'1 2.0
2015-Jul-19 23:33N 48°32' W 122°34'2 1.7
2015-Jul-19 22:31N 48°31' W 122°36'0 0.0
2015-Jul-19 21:31N 48°31' W 122°36'0 0.0
2015-Jul-19 20:31N 48°31' W 122°36'0 0.0
2015-Jul-19 19:31N 48°31' W 122°36'0 0.0
2015-Jul-19 18:31N 48°31' W 122°36'0 0.0
2015-Jul-19 17:25N 48°31' W 122°36'0 0.0
2015-Jul-19 16:31N 48°31' W 122°36'0 0.0
2015-Jul-19 15:31N 48°31' W 122°36'0 0.0
2015-Jul-19 14:34N 48°31' W 122°36'0 0.0
2015-Jul-19 13:34N 48°31' W 122°36'0 0.0
2015-Jul-19 12:34N 48°31' W 122°36'0 0.0
2015-Jul-19 11:34N 48°31' W 122°36'0 0.0
2015-Jul-19 10:33N 48°31' W 122°36'0 0.0
2015-Jul-19 09:34N 48°31' W 122°36'0 0.0
2015-Jul-19 08:33N 48°31' W 122°36'0 0.0
2015-Jul-19 07:33N 48°31' W 122°36'0 0.0
2015-Jul-19 06:33N 48°31' W 122°36'0 0.0
2015-Jul-19 05:33N 48°31' W 122°36'0 0.0
2015-Jul-19 04:33N 48°31' W 122°36'1 0.2
2015-Jul-19 00:33N 48°31' W 122°35'1 1.0
2015-Jul-18 23:33N 48°32' W 122°34'2 1.5
2015-Jul-18 22:33N 48°31' W 122°36'  

Dump ship's entire track history